Green, Kansas
Current Conditions -  °F | °C
As of 4:17 AM on Saturday 22 Nov 2014 (Local Time) from KMHK Reporting Station
Haze Haze  
Wind Chill: 37°   Ceiling: 300
Heat Index: 42°   Visibility: 1.7mi
Dew Point: 42°   Wind: 9mph
Humidity: 100%   Direction: 210°SSW
Pressure: 29.97"   Gusts: NA
Location:  39.43°N, 97°W
Report Text: KMHK 221017Z AUTO 21008KT 1 3/4SM BR OVC003 06/06 A2997 RMK AO2 T00560056 TSNO
Loading
Personal Weather Stations






























Interactive Weather Map New forecast layout! Learn more

10-Day Weather Forecast

Advertisements
Track Severe Weather on mobile